EWG1DB EDDP-EDDN
Flight info
| Callsign | EWG1DB |
|---|---|
| Flight time | 0h 31m |
| Altitude | 23000 |
| Route | GOLAT2Q GOLAT T202 TABAT Q244 PIVIR PIVIR1V |
| Aircraft | A319/M-SDE3FGHIRWY/LB1 |
Departure
| Time | 2026-05-06 18:25 |
|---|---|
| Airport | Leipzig/Halle Airport (EDDP) |
Arrival
| Time | 2026-05-06 18:56 |
|---|---|
| Airport | Nuremberg Airport (EDDN) |
| Time | Latitude | Longitude | Altitude | Speed | Heading |
|---|---|---|---|---|---|
| 2026-05-06 18:06 | 51.41917 | 12.21953 | 434 ft | 0 kts | 14° |
| 2026-05-06 18:13 | 51.41917 | 12.21952 | 434 ft | 0 kts | 14° |
| 2026-05-06 18:15 | 51.41913 | 12.21951 | 434 ft | 2 kts | 14° |
| 2026-05-06 18:15 | 51.41882 | 12.21937 | 434 ft | 6 kts | 14° |
| 2026-05-06 18:16 | 51.41834 | 12.21921 | 432 ft | 5 kts | 352° |
| 2026-05-06 18:16 | 51.41823 | 12.21926 | 433 ft | 0 kts | 289° |
| 2026-05-06 18:16 | 51.41824 | 12.21923 | 432 ft | 0 kts | 293° |
| 2026-05-06 18:18 | 51.41828 | 12.21903 | 431 ft | 9 kts | 289° |
| 2026-05-06 18:18 | 51.41857 | 12.21757 | 423 ft | 17 kts | 287° |
| 2026-05-06 18:18 | 51.41897 | 12.21553 | 418 ft | 20 kts | 285° |
| 2026-05-06 18:18 | 51.41926 | 12.21325 | 415 ft | 21 kts | 282° |
| 2026-05-06 18:19 | 51.41964 | 12.21103 | 418 ft | 20 kts | 285° |
| 2026-05-06 18:19 | 51.42033 | 12.20926 | 416 ft | 19 kts | 350° |
| 2026-05-06 18:19 | 51.42165 | 12.20965 | 416 ft | 18 kts | 15° |
| 2026-05-06 18:19 | 51.42291 | 12.21022 | 415 ft | 18 kts | 16° |
| 2026-05-06 18:20 | 51.42419 | 12.21077 | 414 ft | 19 kts | 14° |
| 2026-05-06 18:20 | 51.42547 | 12.21133 | 414 ft | 18 kts | 16° |
| 2026-05-06 18:20 | 51.42672 | 12.21187 | 414 ft | 18 kts | 15° |
| 2026-05-06 18:20 | 51.42792 | 12.21241 | 414 ft | 17 kts | 15° |
| 2026-05-06 18:21 | 51.42902 | 12.21307 | 415 ft | 16 kts | 33° |
| 2026-05-06 18:21 | 51.42984 | 12.21431 | 416 ft | 16 kts | 45° |
| 2026-05-06 18:21 | 51.43065 | 12.21557 | 415 ft | 16 kts | 43° |
| 2026-05-06 18:21 | 51.43129 | 12.21701 | 415 ft | 16 kts | 77° |
| 2026-05-06 18:22 | 51.43131 | 12.21738 | 415 ft | 0 kts | 85° |
| 2026-05-06 18:25 | 51.43136 | 12.21818 | 415 ft | 34 kts | 84° |
| 2026-05-06 18:25 | 51.43177 | 12.22635 | 418 ft | 109 kts | 87° |
| 2026-05-06 18:25 | 51.43240 | 12.24157 | 531 ft | 157 kts | 85° |
| 2026-05-06 18:25 | 51.43305 | 12.25855 | 1297 ft | 148 kts | 82° |
| 2026-05-06 18:26 | 51.43385 | 12.27403 | 2043 ft | 140 kts | 81° |
| 2026-05-06 18:26 | 51.43476 | 12.28998 | 2561 ft | 151 kts | 82° |
| 2026-05-06 18:26 | 51.43575 | 12.30755 | 2979 ft | 170 kts | 83° |
| 2026-05-06 18:26 | 51.43678 | 12.32725 | 3476 ft | 189 kts | 83° |
| 2026-05-06 18:27 | 51.43786 | 12.34901 | 4039 ft | 207 kts | 84° |
| 2026-05-06 18:27 | 51.43900 | 12.37274 | 4674 ft | 223 kts | 84° |
| 2026-05-06 18:27 | 51.44021 | 12.39817 | 5291 ft | 241 kts | 85° |
| 2026-05-06 18:27 | 51.44152 | 12.42602 | 5925 ft | 260 kts | 85° |
| 2026-05-06 18:28 | 51.44132 | 12.45553 | 6523 ft | 279 kts | 104° |
| 2026-05-06 18:28 | 51.43175 | 12.48271 | 7297 ft | 286 kts | 139° |
| 2026-05-06 18:28 | 51.41473 | 12.49677 | 8293 ft | 282 kts | 172° |
| 2026-05-06 18:28 | 51.39586 | 12.49405 | 9269 ft | 277 kts | 204° |
| 2026-05-06 18:29 | 51.38029 | 12.47624 | 10209 ft | 277 kts | 224° |
| 2026-05-06 18:29 | 51.36592 | 12.45515 | 10817 ft | 292 kts | 221° |
| 2026-05-06 18:29 | 51.34976 | 12.43351 | 11280 ft | 310 kts | 219° |
| 2026-05-06 18:29 | 51.33248 | 12.41176 | 11676 ft | 328 kts | 218° |
| 2026-05-06 18:30 | 51.31378 | 12.38908 | 12110 ft | 345 kts | 217° |
| 2026-05-06 18:30 | 51.29439 | 12.36607 | 12797 ft | 352 kts | 217° |
| 2026-05-06 18:30 | 51.27470 | 12.34298 | 13582 ft | 355 kts | 216° |
| 2026-05-06 18:30 | 51.25482 | 12.31985 | 14349 ft | 359 kts | 216° |
| 2026-05-06 18:31 | 51.23441 | 12.29623 | 15086 ft | 363 kts | 216° |
| 2026-05-06 18:31 | 51.21413 | 12.27284 | 15799 ft | 366 kts | 216° |
| 2026-05-06 18:31 | 51.19341 | 12.24899 | 16526 ft | 369 kts | 216° |
| 2026-05-06 18:31 | 51.17271 | 12.22519 | 17176 ft | 373 kts | 216° |
| 2026-05-06 18:32 | 51.15152 | 12.20086 | 17831 ft | 377 kts | 216° |
| 2026-05-06 18:32 | 51.13028 | 12.17652 | 18486 ft | 380 kts | 216° |
| 2026-05-06 18:32 | 51.10866 | 12.15176 | 19125 ft | 383 kts | 216° |
| 2026-05-06 18:32 | 51.08705 | 12.12706 | 19768 ft | 386 kts | 216° |
| 2026-05-06 18:33 | 51.06541 | 12.10236 | 20427 ft | 388 kts | 216° |
| 2026-05-06 18:33 | 51.04350 | 12.07738 | 21059 ft | 391 kts | 216° |
| 2026-05-06 18:33 | 51.02137 | 12.05215 | 21668 ft | 393 kts | 216° |
| 2026-05-06 18:33 | 50.99915 | 12.02686 | 22235 ft | 396 kts | 216° |
| 2026-05-06 18:34 | 50.97672 | 12.00137 | 22669 ft | 399 kts | 216° |
| 2026-05-06 18:34 | 50.95423 | 11.97585 | 22767 ft | 399 kts | 216° |
| 2026-05-06 18:34 | 50.93166 | 11.95027 | 22765 ft | 398 kts | 216° |
| 2026-05-06 18:34 | 50.90922 | 11.92484 | 22763 ft | 398 kts | 216° |
| 2026-05-06 18:35 | 50.88662 | 11.89928 | 22772 ft | 397 kts | 216° |
| 2026-05-06 18:35 | 50.86417 | 11.87395 | 22771 ft | 398 kts | 216° |
| 2026-05-06 18:35 | 50.84153 | 11.84845 | 22772 ft | 398 kts | 216° |
| 2026-05-06 18:35 | 50.81906 | 11.82323 | 22771 ft | 398 kts | 216° |
| 2026-05-06 18:36 | 50.79662 | 11.79801 | 22774 ft | 398 kts | 216° |
| 2026-05-06 18:36 | 50.77396 | 11.77258 | 22777 ft | 398 kts | 216° |
| 2026-05-06 18:36 | 50.75151 | 11.74740 | 22771 ft | 398 kts | 216° |
| 2026-05-06 18:36 | 50.72892 | 11.72205 | 22769 ft | 398 kts | 216° |
| 2026-05-06 18:37 | 50.70644 | 11.69687 | 22769 ft | 398 kts | 216° |
| 2026-05-06 18:37 | 50.69161 | 11.68027 | 22765 ft | 399 kts | 216° |
| 2026-05-06 18:37 | 50.66148 | 11.64661 | 22631 ft | 398 kts | 216° |
| 2026-05-06 18:37 | 50.63912 | 11.62165 | 22366 ft | 396 kts | 216° |
| 2026-05-06 18:38 | 50.61638 | 11.59631 | 22095 ft | 395 kts | 216° |
| 2026-05-06 18:38 | 50.59405 | 11.57159 | 21832 ft | 394 kts | 214° |
| 2026-05-06 18:38 | 50.57013 | 11.55212 | 21569 ft | 393 kts | 201° |
| 2026-05-06 18:38 | 50.54344 | 11.54143 | 21304 ft | 394 kts | 189° |
| 2026-05-06 18:39 | 50.51614 | 11.54029 | 21044 ft | 395 kts | 177° |
| 2026-05-06 18:39 | 50.48898 | 11.54530 | 20785 ft | 395 kts | 175° |
| 2026-05-06 18:39 | 50.46189 | 11.55081 | 20524 ft | 393 kts | 176° |
| 2026-05-06 18:40 | 50.40808 | 11.54510 | 19993 ft | 389 kts | 189° |
| 2026-05-06 18:40 | 50.38135 | 11.53935 | 19733 ft | 388 kts | 189° |
| 2026-05-06 18:40 | 50.35440 | 11.53384 | 19476 ft | 387 kts | 189° |
| 2026-05-06 18:40 | 50.32779 | 11.52872 | 19211 ft | 386 kts | 188° |
| 2026-05-06 18:41 | 50.30120 | 11.52383 | 18951 ft | 385 kts | 188° |
| 2026-05-06 18:41 | 50.27483 | 11.51910 | 18708 ft | 384 kts | 188° |
| 2026-05-06 18:41 | 50.24823 | 11.51444 | 18450 ft | 383 kts | 188° |
| 2026-05-06 18:41 | 50.22189 | 11.50987 | 18195 ft | 383 kts | 188° |
| 2026-05-06 18:42 | 50.19534 | 11.50533 | 17951 ft | 382 kts | 188° |
| 2026-05-06 18:42 | 50.16918 | 11.50087 | 17703 ft | 381 kts | 188° |
| 2026-05-06 18:42 | 50.14266 | 11.49637 | 17447 ft | 380 kts | 188° |
| 2026-05-06 18:42 | 50.11682 | 11.49202 | 17175 ft | 378 kts | 188° |
| 2026-05-06 18:43 | 50.09070 | 11.48831 | 16872 ft | 377 kts | 186° |
| 2026-05-06 18:43 | 50.06456 | 11.48602 | 16479 ft | 376 kts | 185° |
| 2026-05-06 18:43 | 50.03866 | 11.48399 | 16025 ft | 373 kts | 184° |
| 2026-05-06 18:43 | 50.01303 | 11.48205 | 15567 ft | 368 kts | 185° |
| 2026-05-06 18:44 | 49.98760 | 11.48019 | 15113 ft | 363 kts | 185° |
| 2026-05-06 18:44 | 49.96252 | 11.47836 | 14660 ft | 358 kts | 185° |
| 2026-05-06 18:44 | 49.93806 | 11.47656 | 14216 ft | 354 kts | 185° |
| 2026-05-06 18:44 | 49.91338 | 11.47471 | 13767 ft | 351 kts | 185° |
| 2026-05-06 18:45 | 49.88918 | 11.47297 | 13317 ft | 347 kts | 185° |
| 2026-05-06 18:45 | 49.86493 | 11.47122 | 12872 ft | 344 kts | 185° |
| 2026-05-06 18:45 | 49.84106 | 11.46946 | 12423 ft | 342 kts | 185° |
| 2026-05-06 18:45 | 49.82523 | 11.46829 | 12121 ft | 339 kts | 185° |
| 2026-05-06 18:46 | 49.79456 | 11.46605 | 11534 ft | 327 kts | 184° |
| 2026-05-06 18:46 | 49.77203 | 11.46689 | 11077 ft | 320 kts | 177° |
| 2026-05-06 18:46 | 49.75010 | 11.47062 | 10601 ft | 313 kts | 175° |
| 2026-05-06 18:46 | 49.72887 | 11.47474 | 10126 ft | 307 kts | 175° |
| 2026-05-06 18:47 | 49.70813 | 11.47879 | 9658 ft | 301 kts | 175° |
| 2026-05-06 18:47 | 49.68755 | 11.48278 | 9187 ft | 297 kts | 175° |
| 2026-05-06 18:47 | 49.66732 | 11.48679 | 8719 ft | 292 kts | 174° |
| 2026-05-06 18:47 | 49.64735 | 11.49077 | 8242 ft | 288 kts | 175° |
| 2026-05-06 18:48 | 49.62764 | 11.49314 | 7812 ft | 280 kts | 182° |
| 2026-05-06 18:48 | 49.60843 | 11.49293 | 7374 ft | 276 kts | 184° |
| 2026-05-06 18:48 | 49.58940 | 11.49194 | 6921 ft | 274 kts | 185° |
| 2026-05-06 18:48 | 49.57030 | 11.49072 | 6464 ft | 271 kts | 184° |
| 2026-05-06 18:49 | 49.55166 | 11.48949 | 6012 ft | 271 kts | 184° |
| 2026-05-06 18:49 | 49.53300 | 11.48833 | 5567 ft | 269 kts | 185° |
| 2026-05-06 18:49 | 49.51448 | 11.48732 | 5110 ft | 260 kts | 185° |
| 2026-05-06 18:49 | 49.49691 | 11.48643 | 4660 ft | 252 kts | 185° |
| 2026-05-06 18:50 | 49.48007 | 11.48211 | 4189 ft | 240 kts | 210° |
| 2026-05-06 18:50 | 49.46891 | 11.46510 | 3920 ft | 219 kts | 246° |
| 2026-05-06 18:50 | 49.46431 | 11.44416 | 3905 ft | 202 kts | 264° |
| 2026-05-06 18:50 | 49.46421 | 11.42271 | 3907 ft | 199 kts | 277° |
| 2026-05-06 18:51 | 49.46640 | 11.40214 | 3898 ft | 190 kts | 282° |
| 2026-05-06 18:51 | 49.46887 | 11.38275 | 3884 ft | 179 kts | 281° |
| 2026-05-06 18:51 | 49.47096 | 11.36477 | 3949 ft | 164 kts | 280° |
| 2026-05-06 18:51 | 49.47272 | 11.34803 | 3904 ft | 149 kts | 278° |
| 2026-05-06 18:52 | 49.47419 | 11.33312 | 3898 ft | 136 kts | 278° |
| 2026-05-06 18:52 | 49.47555 | 11.31882 | 3874 ft | 134 kts | 278° |
| 2026-05-06 18:52 | 49.47687 | 11.30479 | 3715 ft | 133 kts | 278° |
| 2026-05-06 18:52 | 49.47816 | 11.29083 | 3537 ft | 132 kts | 278° |
| 2026-05-06 18:53 | 49.47948 | 11.27671 | 3360 ft | 132 kts | 278° |
| 2026-05-06 18:53 | 49.48077 | 11.26297 | 3185 ft | 131 kts | 278° |
| 2026-05-06 18:53 | 49.48209 | 11.24897 | 3010 ft | 131 kts | 278° |
| 2026-05-06 18:53 | 49.48340 | 11.23520 | 2837 ft | 131 kts | 278° |
| 2026-05-06 18:54 | 49.48473 | 11.22135 | 2662 ft | 130 kts | 278° |
| 2026-05-06 18:54 | 49.48605 | 11.20760 | 2493 ft | 129 kts | 278° |
| 2026-05-06 18:54 | 49.48736 | 11.19406 | 2325 ft | 130 kts | 278° |
| 2026-05-06 18:54 | 49.48870 | 11.18026 | 2150 ft | 129 kts | 278° |
| 2026-05-06 18:55 | 49.49003 | 11.16662 | 1979 ft | 129 kts | 278° |
| 2026-05-06 18:55 | 49.49134 | 11.15318 | 1809 ft | 128 kts | 278° |
| 2026-05-06 18:55 | 49.49265 | 11.13962 | 1636 ft | 128 kts | 278° |
| 2026-05-06 18:55 | 49.49399 | 11.12601 | 1465 ft | 128 kts | 277° |
| 2026-05-06 18:56 | 49.49530 | 11.11260 | 1299 ft | 127 kts | 277° |
| 2026-05-06 18:56 | 49.49663 | 11.09909 | 1127 ft | 127 kts | 277° |
| 2026-05-06 18:56 | 49.49775 | 11.08666 | 1051 ft | 97 kts | 279° |
| 2026-05-06 18:56 | 49.49856 | 11.07892 | 1051 ft | 49 kts | 276° |
| 2026-05-06 18:57 | 49.49904 | 11.07395 | 1051 ft | 44 kts | 276° |
| 2026-05-06 18:57 | 49.49938 | 11.07089 | 1051 ft | 16 kts | 268° |
| 2026-05-06 18:57 | 49.49851 | 11.07032 | 1051 ft | 15 kts | 162° |
| 2026-05-06 18:57 | 49.49764 | 11.07092 | 1051 ft | 11 kts | 149° |
| 2026-05-06 18:58 | 49.49736 | 11.07202 | 1051 ft | 11 kts | 99° |
| 2026-05-06 18:58 | 49.49724 | 11.07329 | 1051 ft | 12 kts | 98° |
| 2026-05-06 18:58 | 49.49711 | 11.07462 | 1051 ft | 12 kts | 98° |
| 2026-05-06 18:58 | 49.49697 | 11.07599 | 1051 ft | 13 kts | 98° |
| 2026-05-06 18:59 | 49.49678 | 11.07737 | 1051 ft | 13 kts | 125° |
| 2026-05-06 18:59 | 49.49648 | 11.07865 | 1051 ft | 13 kts | 98° |
| 2026-05-06 18:59 | 49.49633 | 11.08007 | 1051 ft | 13 kts | 98° |
| 2026-05-06 18:59 | 49.49616 | 11.08069 | 1051 ft | 3 kts | 191° |
| 2026-05-06 19:00 | 49.49603 | 11.08067 | 1051 ft | 0 kts | 183° |